sensor_id;sensor_type;location;lat;lon;timestamp;P1;durP1;ratioP1;P2;durP2;ratioP2
75716;SDS011;64333;50.138;14.332;2024-02-14T00:01:14;13.00;;;6.82;;
75716;SDS011;64333;50.138;14.332;2024-02-14T00:03:39;11.82;;;7.22;;
75716;SDS011;64333;50.138;14.332;2024-02-14T00:06:05;11.35;;;6.80;;
75716;SDS011;64333;50.138;14.332;2024-02-14T00:08:31;11.02;;;6.70;;
75716;SDS011;64333;50.138;14.332;2024-02-14T00:10:56;11.90;;;6.75;;
75716;SDS011;64333;50.138;14.332;2024-02-14T00:13:22;11.32;;;7.28;;
75716;SDS011;64333;50.138;14.332;2024-02-14T00:15:47;12.30;;;6.75;;
75716;SDS011;64333;50.138;14.332;2024-02-14T00:18:13;10.90;;;7.15;;
75716;SDS011;64333;50.138;14.332;2024-02-14T00:20:40;10.82;;;6.57;;
75716;SDS011;64333;50.138;14.332;2024-02-14T00:23:05;14.57;;;7.70;;
75716;SDS011;64333;50.138;14.332;2024-02-14T00:25:31;11.18;;;7.38;;
75716;SDS011;64333;50.138;14.332;2024-02-14T00:27:56;11.57;;;6.40;;
75716;SDS011;64333;50.138;14.332;2024-02-14T00:30:22;13.73;;;7.00;;
75716;SDS011;64333;50.138;14.332;2024-02-14T00:32:50;10.88;;;6.28;;
75716;SDS011;64333;50.138;14.332;2024-02-14T00:35:15;10.40;;;5.97;;
75716;SDS011;64333;50.138;14.332;2024-02-14T00:37:41;11.15;;;5.85;;
75716;SDS011;64333;50.138;14.332;2024-02-14T00:40:06;10.50;;;6.10;;
75716;SDS011;64333;50.138;14.332;2024-02-14T00:42:32;11.13;;;6.30;;
75716;SDS011;64333;50.138;14.332;2024-02-14T00:44:57;11.00;;;6.03;;
75716;SDS011;64333;50.138;14.332;2024-02-14T00:47:22;10.63;;;7.25;;
75716;SDS011;64333;50.138;14.332;2024-02-14T00:49:48;13.07;;;6.78;;
75716;SDS011;64333;50.138;14.332;2024-02-14T00:52:13;12.20;;;6.00;;
75716;SDS011;64333;50.138;14.332;2024-02-14T00:54:39;11.93;;;5.82;;
75716;SDS011;64333;50.138;14.332;2024-02-14T00:57:04;14.05;;;6.78;;
75716;SDS011;64333;50.138;14.332;2024-02-14T00:59:30;9.30;;;5.93;;
75716;SDS011;64333;50.138;14.332;2024-02-14T01:01:55;9.93;;;6.05;;
75716;SDS011;64333;50.138;14.332;2024-02-14T01:04:20;10.48;;;5.90;;
75716;SDS011;64333;50.138;14.332;2024-02-14T01:06:46;9.30;;;5.80;;
75716;SDS011;64333;50.138;14.332;2024-02-14T01:09:13;13.07;;;6.10;;
75716;SDS011;64333;50.138;14.332;2024-02-14T01:11:38;8.90;;;6.35;;
75716;SDS011;64333;50.138;14.332;2024-02-14T01:14:04;8.57;;;5.60;;
75716;SDS011;64333;50.138;14.332;2024-02-14T01:16:29;11.73;;;6.45;;
75716;SDS011;64333;50.138;14.332;2024-02-14T01:18:55;10.20;;;6.32;;
75716;SDS011;64333;50.138;14.332;2024-02-14T01:21:20;10.27;;;5.93;;
75716;SDS011;64333;50.138;14.332;2024-02-14T01:23:46;13.30;;;6.30;;
75716;SDS011;64333;50.138;14.332;2024-02-14T01:26:11;11.43;;;6.07;;
75716;SDS011;64333;50.138;14.332;2024-02-14T01:28:36;8.70;;;5.70;;
75716;SDS011;64333;50.138;14.332;2024-02-14T01:31:03;8.48;;;5.18;;
75716;SDS011;64333;50.138;14.332;2024-02-14T01:33:28;10.98;;;5.90;;
75716;SDS011;64333;50.138;14.332;2024-02-14T01:35:55;8.32;;;5.22;;
75716;SDS011;64333;50.138;14.332;2024-02-14T01:38:21;11.35;;;5.97;;
75716;SDS011;64333;50.138;14.332;2024-02-14T01:40:46;9.43;;;5.22;;
75716;SDS011;64333;50.138;14.332;2024-02-14T01:43:12;8.48;;;5.53;;
75716;SDS011;64333;50.138;14.332;2024-02-14T01:45:39;10.32;;;5.57;;
75716;SDS011;64333;50.138;14.332;2024-02-14T01:48:05;9.93;;;5.45;;
75716;SDS011;64333;50.138;14.332;2024-02-14T01:50:31;7.80;;;4.55;;
75716;SDS011;64333;50.138;14.332;2024-02-14T01:52:58;7.63;;;4.50;;
75716;SDS011;64333;50.138;14.332;2024-02-14T01:55:24;8.30;;;4.90;;
75716;SDS011;64333;50.138;14.332;2024-02-14T01:57:52;10.32;;;5.40;;
75716;SDS011;64333;50.138;14.332;2024-02-14T02:00:18;9.98;;;4.78;;
75716;SDS011;64333;50.138;14.332;2024-02-14T02:02:44;7.47;;;4.30;;
75716;SDS011;64333;50.138;14.332;2024-02-14T02:05:11;9.80;;;4.63;;
75716;SDS011;64333;50.138;14.332;2024-02-14T02:07:37;9.48;;;4.65;;
75716;SDS011;64333;50.138;14.332;2024-02-14T02:10:08;10.40;;;5.00;;
75716;SDS011;64333;50.138;14.332;2024-02-14T02:12:36;8.50;;;5.75;;
75716;SDS011;64333;50.138;14.332;2024-02-14T02:15:04;12.70;;;4.95;;
75716;SDS011;64333;50.138;14.332;2024-02-14T02:17:36;11.20;;;5.25;;
75716;SDS011;64333;50.138;14.332;2024-02-14T02:20:01;8.30;;;4.95;;
75716;SDS011;64333;50.138;14.332;2024-02-14T02:22:27;6.60;;;4.63;;
75716;SDS011;64333;50.138;14.332;2024-02-14T02:24:54;8.02;;;4.88;;
75716;SDS011;64333;50.138;14.332;2024-02-14T02:27:19;6.72;;;4.72;;
75716;SDS011;64333;50.138;14.332;2024-02-14T02:29:45;6.55;;;4.05;;
75716;SDS011;64333;50.138;14.332;2024-02-14T02:32:11;7.47;;;4.60;;
75716;SDS011;64333;50.138;14.332;2024-02-14T02:34:36;7.13;;;4.75;;
75716;SDS011;64333;50.138;14.332;2024-02-14T02:37:04;7.18;;;4.45;;
75716;SDS011;64333;50.138;14.332;2024-02-14T02:39:32;9.68;;;5.22;;
75716;SDS011;64333;50.138;14.332;2024-02-14T02:41:58;8.25;;;4.03;;
75716;SDS011;64333;50.138;14.332;2024-02-14T02:44:24;8.00;;;4.35;;
75716;SDS011;64333;50.138;14.332;2024-02-14T02:46:50;9.48;;;4.63;;
75716;SDS011;64333;50.138;14.332;2024-02-14T02:49:15;9.32;;;4.35;;
75716;SDS011;64333;50.138;14.332;2024-02-14T02:51:41;8.30;;;4.25;;
75716;SDS011;64333;50.138;14.332;2024-02-14T02:54:06;7.40;;;3.75;;
75716;SDS011;64333;50.138;14.332;2024-02-14T02:56:33;6.78;;;3.90;;
75716;SDS011;64333;50.138;14.332;2024-02-14T02:58:58;7.07;;;3.80;;
75716;SDS011;64333;50.138;14.332;2024-02-14T03:01:24;5.72;;;3.55;;
75716;SDS011;64333;50.138;14.332;2024-02-14T03:03:50;6.75;;;3.60;;
75716;SDS011;64333;50.138;14.332;2024-02-14T03:06:15;6.78;;;4.10;;
75716;SDS011;64333;50.138;14.332;2024-02-14T03:08:41;5.88;;;4.38;;
75716;SDS011;64333;50.138;14.332;2024-02-14T03:11:06;5.32;;;3.58;;
75716;SDS011;64333;50.138;14.332;2024-02-14T03:13:32;5.82;;;3.92;;
75716;SDS011;64333;50.138;14.332;2024-02-14T03:15:58;8.90;;;3.88;;
75716;SDS011;64333;50.138;14.332;2024-02-14T03:18:24;6.35;;;3.65;;
75716;SDS011;64333;50.138;14.332;2024-02-14T03:20:49;5.38;;;3.63;;
75716;SDS011;64333;50.138;14.332;2024-02-14T03:23:21;6.78;;;3.97;;
75716;SDS011;64333;50.138;14.332;2024-02-14T03:25:47;6.43;;;3.53;;
75716;SDS011;64333;50.138;14.332;2024-02-14T03:28:13;8.80;;;3.35;;
75716;SDS011;64333;50.138;14.332;2024-02-14T03:30:39;6.80;;;3.70;;
75716;SDS011;64333;50.138;14.332;2024-02-14T03:33:05;4.75;;;3.63;;
75716;SDS011;64333;50.138;14.332;2024-02-14T03:35:31;7.22;;;3.30;;
75716;SDS011;64333;50.138;14.332;2024-02-14T03:37:56;7.07;;;3.58;;
75716;SDS011;64333;50.138;14.332;2024-02-14T03:40:22;5.35;;;3.47;;
75716;SDS011;64333;50.138;14.332;2024-02-14T03:42:47;8.43;;;3.50;;
75716;SDS011;64333;50.138;14.332;2024-02-14T03:45:13;9.43;;;4.00;;
75716;SDS011;64333;50.138;14.332;2024-02-14T03:47:38;7.82;;;4.13;;
75716;SDS011;64333;50.138;14.332;2024-02-14T03:50:05;8.32;;;3.80;;
75716;SDS011;64333;50.138;14.332;2024-02-14T03:52:32;5.40;;;3.33;;
75716;SDS011;64333;50.138;14.332;2024-02-14T03:54:57;5.90;;;3.55;;
75716;SDS011;64333;50.138;14.332;2024-02-14T03:57:24;6.75;;;3.80;;
75716;SDS011;64333;50.138;14.332;2024-02-14T03:59:50;7.38;;;3.90;;
75716;SDS011;64333;50.138;14.332;2024-02-14T04:02:15;7.38;;;3.67;;
75716;SDS011;64333;50.138;14.332;2024-02-14T04:04:41;6.00;;;4.00;;
75716;SDS011;64333;50.138;14.332;2024-02-14T04:07:07;7.32;;;4.72;;
75716;SDS011;64333;50.138;14.332;2024-02-14T04:09:36;6.55;;;4.72;;
75716;SDS011;64333;50.138;14.332;2024-02-14T04:12:01;9.98;;;4.55;;
75716;SDS011;64333;50.138;14.332;2024-02-14T04:14:27;8.88;;;4.20;;
75716;SDS011;64333;50.138;14.332;2024-02-14T04:16:52;7.68;;;4.55;;
75716;SDS011;64333;50.138;14.332;2024-02-14T04:19:18;8.38;;;5.28;;
75716;SDS011;64333;50.138;14.332;2024-02-14T04:21:43;6.72;;;4.10;;
75716;SDS011;64333;50.138;14.332;2024-02-14T04:24:09;9.07;;;4.25;;
75716;SDS011;64333;50.138;14.332;2024-02-14T04:26:34;7.30;;;4.30;;
75716;SDS011;64333;50.138;14.332;2024-02-14T04:29:00;5.88;;;3.47;;
75716;SDS011;64333;50.138;14.332;2024-02-14T04:31:26;6.75;;;3.95;;
75716;SDS011;64333;50.138;14.332;2024-02-14T04:33:52;6.03;;;3.53;;
75716;SDS011;64333;50.138;14.332;2024-02-14T04:36:19;5.47;;;3.40;;
75716;SDS011;64333;50.138;14.332;2024-02-14T04:38:46;5.85;;;3.90;;
75716;SDS011;64333;50.138;14.332;2024-02-14T04:41:12;8.15;;;4.13;;
75716;SDS011;64333;50.138;14.332;2024-02-14T04:43:37;7.25;;;4.65;;
75716;SDS011;64333;50.138;14.332;2024-02-14T04:46:03;7.68;;;3.35;;
75716;SDS011;64333;50.138;14.332;2024-02-14T04:48:32;8.57;;;3.85;;
75716;SDS011;64333;50.138;14.332;2024-02-14T04:51:01;5.72;;;3.47;;
75716;SDS011;64333;50.138;14.332;2024-02-14T04:53:27;6.47;;;3.88;;
75716;SDS011;64333;50.138;14.332;2024-02-14T04:55:53;7.20;;;3.13;;
75716;SDS011;64333;50.138;14.332;2024-02-14T04:58:18;6.13;;;3.90;;
75716;SDS011;64333;50.138;14.332;2024-02-14T05:00:44;6.65;;;3.80;;
75716;SDS011;64333;50.138;14.332;2024-02-14T05:03:10;7.03;;;3.42;;
75716;SDS011;64333;50.138;14.332;2024-02-14T05:05:35;6.07;;;3.47;;
75716;SDS011;64333;50.138;14.332;2024-02-14T05:08:01;8.90;;;3.65;;
75716;SDS011;64333;50.138;14.332;2024-02-14T05:10:29;6.60;;;4.07;;
75716;SDS011;64333;50.138;14.332;2024-02-14T05:12:56;6.53;;;3.78;;
75716;SDS011;64333;50.138;14.332;2024-02-14T05:15:21;7.15;;;3.88;;
75716;SDS011;64333;50.138;14.332;2024-02-14T05:17:47;6.82;;;3.67;;
75716;SDS011;64333;50.138;14.332;2024-02-14T05:20:15;7.70;;;3.47;;
75716;SDS011;64333;50.138;14.332;2024-02-14T05:22:40;6.40;;;3.50;;
75716;SDS011;64333;50.138;14.332;2024-02-14T05:25:06;7.18;;;3.65;;
75716;SDS011;64333;50.138;14.332;2024-02-14T05:27:34;6.72;;;3.70;;
75716;SDS011;64333;50.138;14.332;2024-02-14T05:29:59;4.88;;;3.88;;
75716;SDS011;64333;50.138;14.332;2024-02-14T05:32:24;7.70;;;4.13;;
75716;SDS011;64333;50.138;14.332;2024-02-14T05:34:53;6.13;;;2.90;;
75716;SDS011;64333;50.138;14.332;2024-02-14T05:37:19;7.32;;;3.60;;
75716;SDS011;64333;50.138;14.332;2024-02-14T05:39:44;5.53;;;2.97;;
75716;SDS011;64333;50.138;14.332;2024-02-14T05:42:10;7.97;;;4.00;;
75716;SDS011;64333;50.138;14.332;2024-02-14T05:44:35;7.00;;;3.60;;
75716;SDS011;64333;50.138;14.332;2024-02-14T05:47:01;7.93;;;3.65;;
75716;SDS011;64333;50.138;14.332;2024-02-14T05:49:26;6.50;;;3.42;;
75716;SDS011;64333;50.138;14.332;2024-02-14T05:51:51;7.82;;;4.00;;
75716;SDS011;64333;50.138;14.332;2024-02-14T05:54:18;5.40;;;3.40;;
75716;SDS011;64333;50.138;14.332;2024-02-14T05:56:44;4.32;;;3.10;;
75716;SDS011;64333;50.138;14.332;2024-02-14T05:59:09;7.60;;;2.78;;
75716;SDS011;64333;50.138;14.332;2024-02-14T06:01:35;8.63;;;3.75;;
75716;SDS011;64333;50.138;14.332;2024-02-14T06:04:00;7.43;;;3.97;;
75716;SDS011;64333;50.138;14.332;2024-02-14T06:06:26;7.05;;;3.53;;
75716;SDS011;64333;50.138;14.332;2024-02-14T06:08:51;5.32;;;3.33;;
75716;SDS011;64333;50.138;14.332;2024-02-14T06:11:16;6.25;;;3.45;;
75716;SDS011;64333;50.138;14.332;2024-02-14T06:13:45;5.95;;;3.60;;
75716;SDS011;64333;50.138;14.332;2024-02-14T06:16:10;7.68;;;3.78;;
75716;SDS011;64333;50.138;14.332;2024-02-14T06:18:36;7.03;;;3.35;;
75716;SDS011;64333;50.138;14.332;2024-02-14T06:21:02;7.53;;;3.75;;
75716;SDS011;64333;50.138;14.332;2024-02-14T06:23:27;6.90;;;3.88;;
75716;SDS011;64333;50.138;14.332;2024-02-14T06:25:52;7.97;;;3.42;;
75716;SDS011;64333;50.138;14.332;2024-02-14T06:28:18;6.10;;;3.38;;
75716;SDS011;64333;50.138;14.332;2024-02-14T06:30:43;7.82;;;4.13;;
75716;SDS011;64333;50.138;14.332;2024-02-14T06:33:09;7.90;;;4.30;;
75716;SDS011;64333;50.138;14.332;2024-02-14T06:35:34;7.43;;;4.10;;
75716;SDS011;64333;50.138;14.332;2024-02-14T06:38:00;5.85;;;3.13;;
75716;SDS011;64333;50.138;14.332;2024-02-14T06:40:25;5.93;;;3.92;;
75716;SDS011;64333;50.138;14.332;2024-02-14T06:42:52;6.78;;;3.60;;
75716;SDS011;64333;50.138;14.332;2024-02-14T06:45:19;6.45;;;4.43;;
75716;SDS011;64333;50.138;14.332;2024-02-14T06:47:45;8.25;;;4.18;;
75716;SDS011;64333;50.138;14.332;2024-02-14T06:50:10;6.47;;;4.15;;
75716;SDS011;64333;50.138;14.332;2024-02-14T06:52:35;7.38;;;4.32;;
75716;SDS011;64333;50.138;14.332;2024-02-14T06:55:00;6.85;;;4.22;;
75716;SDS011;64333;50.138;14.332;2024-02-14T06:57:28;6.50;;;3.67;;
75716;SDS011;64333;50.138;14.332;2024-02-14T06:59:54;7.80;;;4.22;;
75716;SDS011;64333;50.138;14.332;2024-02-14T07:02:19;6.30;;;3.50;;
75716;SDS011;64333;50.138;14.332;2024-02-14T07:04:46;6.45;;;3.70;;
75716;SDS011;64333;50.138;14.332;2024-02-14T07:07:11;7.65;;;3.75;;
75716;SDS011;64333;50.138;14.332;2024-02-14T07:09:36;7.05;;;3.88;;
75716;SDS011;64333;50.138;14.332;2024-02-14T07:12:03;7.18;;;3.85;;
75716;SDS011;64333;50.138;14.332;2024-02-14T07:14:29;7.03;;;3.35;;
75716;SDS011;64333;50.138;14.332;2024-02-14T07:16:54;6.93;;;3.10;;
75716;SDS011;64333;50.138;14.332;2024-02-14T07:19:20;5.57;;;3.03;;
75716;SDS011;64333;50.138;14.332;2024-02-14T07:21:45;3.47;;;2.53;;
75716;SDS011;64333;50.138;14.332;2024-02-14T07:24:10;5.57;;;3.33;;
75716;SDS011;64333;50.138;14.332;2024-02-14T07:26:36;4.90;;;3.30;;
75716;SDS011;64333;50.138;14.332;2024-02-14T07:29:01;6.13;;;3.63;;
75716;SDS011;64333;50.138;14.332;2024-02-14T07:31:28;4.75;;;3.53;;
75716;SDS011;64333;50.138;14.332;2024-02-14T07:36:25;5.07;;;2.90;;
75716;SDS011;64333;50.138;14.332;2024-02-14T07:38:50;4.93;;;3.10;;
75716;SDS011;64333;50.138;14.332;2024-02-14T07:41:16;8.27;;;3.17;;
75716;SDS011;64333;50.138;14.332;2024-02-14T07:43:41;4.65;;;3.10;;
75716;SDS011;64333;50.138;14.332;2024-02-14T07:46:06;7.35;;;3.67;;
75716;SDS011;64333;50.138;14.332;2024-02-14T07:48:32;5.00;;;3.53;;
75716;SDS011;64333;50.138;14.332;2024-02-14T07:50:58;6.78;;;3.63;;
75716;SDS011;64333;50.138;14.332;2024-02-14T07:53:24;5.38;;;3.15;;
75716;SDS011;64333;50.138;14.332;2024-02-14T07:55:50;5.22;;;2.80;;
75716;SDS011;64333;50.138;14.332;2024-02-14T07:58:16;6.45;;;2.95;;
75716;SDS011;64333;50.138;14.332;2024-02-14T08:00:41;4.60;;;2.72;;
75716;SDS011;64333;50.138;14.332;2024-02-14T08:03:06;7.13;;;2.83;;
75716;SDS011;64333;50.138;14.332;2024-02-14T08:05:33;4.70;;;2.97;;
75716;SDS011;64333;50.138;14.332;2024-02-14T08:07:58;6.93;;;3.22;;
75716;SDS011;64333;50.138;14.332;2024-02-14T08:10:24;4.20;;;3.03;;
75716;SDS011;64333;50.138;14.332;2024-02-14T08:12:49;4.45;;;2.85;;
75716;SDS011;64333;50.138;14.332;2024-02-14T08:15:14;5.68;;;3.10;;
75716;SDS011;64333;50.138;14.332;2024-02-14T08:17:40;4.55;;;2.55;;
75716;SDS011;64333;50.138;14.332;2024-02-14T08:20:07;7.03;;;2.70;;
75716;SDS011;64333;50.138;14.332;2024-02-14T08:22:32;5.93;;;3.75;;
75716;SDS011;64333;50.138;14.332;2024-02-14T08:24:58;4.07;;;3.08;;
75716;SDS011;64333;50.138;14.332;2024-02-14T08:27:24;4.90;;;3.03;;
75716;SDS011;64333;50.138;14.332;2024-02-14T08:29:51;7.85;;;3.90;;
75716;SDS011;64333;50.138;14.332;2024-02-14T08:32:16;6.07;;;2.88;;
75716;SDS011;64333;50.138;14.332;2024-02-14T08:34:41;4.43;;;2.90;;
75716;SDS011;64333;50.138;14.332;2024-02-14T08:37:07;3.75;;;2.50;;
75716;SDS011;64333;50.138;14.332;2024-02-14T08:39:33;5.47;;;2.70;;
75716;SDS011;64333;50.138;14.332;2024-02-14T08:41:58;4.05;;;2.60;;
75716;SDS011;64333;50.138;14.332;2024-02-14T08:44:26;5.30;;;3.03;;
75716;SDS011;64333;50.138;14.332;2024-02-14T08:46:52;6.30;;;3.08;;
75716;SDS011;64333;50.138;14.332;2024-02-14T08:49:18;6.50;;;2.75;;
75716;SDS011;64333;50.138;14.332;2024-02-14T08:51:43;6.57;;;2.65;;
75716;SDS011;64333;50.138;14.332;2024-02-14T08:54:11;3.72;;;2.50;;
75716;SDS011;64333;50.138;14.332;2024-02-14T08:56:37;5.63;;;3.08;;
75716;SDS011;64333;50.138;14.332;2024-02-14T08:59:02;7.43;;;2.63;;
75716;SDS011;64333;50.138;14.332;2024-02-14T09:01:29;4.55;;;2.38;;
75716;SDS011;64333;50.138;14.332;2024-02-14T09:03:55;4.32;;;2.55;;
75716;SDS011;64333;50.138;14.332;2024-02-14T09:06:21;3.65;;;2.22;;
75716;SDS011;64333;50.138;14.332;2024-02-14T09:08:46;5.28;;;2.42;;
75716;SDS011;64333;50.138;14.332;2024-02-14T09:11:12;4.95;;;2.13;;
75716;SDS011;64333;50.138;14.332;2024-02-14T09:13:38;3.13;;;1.95;;
75716;SDS011;64333;50.138;14.332;2024-02-14T09:16:09;4.13;;;2.33;;
75716;SDS011;64333;50.138;14.332;2024-02-14T09:18:36;2.92;;;1.88;;
75716;SDS011;64333;50.138;14.332;2024-02-14T09:21:02;3.35;;;2.25;;
75716;SDS011;64333;50.138;14.332;2024-02-14T09:23:30;4.88;;;2.35;;
75716;SDS011;64333;50.138;14.332;2024-02-14T09:25:56;4.78;;;2.10;;
75716;SDS011;64333;50.138;14.332;2024-02-14T09:28:22;4.05;;;2.33;;
75716;SDS011;64333;50.138;14.332;2024-02-14T09:30:47;4.97;;;3.15;;
75716;SDS011;64333;50.138;14.332;2024-02-14T09:33:13;4.65;;;2.67;;
75716;SDS011;64333;50.138;14.332;2024-02-14T09:35:38;5.80;;;2.40;;
75716;SDS011;64333;50.138;14.332;2024-02-14T09:38:09;5.68;;;2.53;;
75716;SDS011;64333;50.138;14.332;2024-02-14T09:40:34;6.55;;;2.85;;
75716;SDS011;64333;50.138;14.332;2024-02-14T09:43:01;7.07;;;2.72;;
75716;SDS011;64333;50.138;14.332;2024-02-14T09:45:30;5.72;;;2.92;;
75716;SDS011;64333;50.138;14.332;2024-02-14T09:47:58;3.60;;;2.42;;
75716;SDS011;64333;50.138;14.332;2024-02-14T09:50:24;4.00;;;2.40;;
75716;SDS011;64333;50.138;14.332;2024-02-14T09:52:55;3.88;;;2.42;;
75716;SDS011;64333;50.138;14.332;2024-02-14T09:55:22;4.38;;;2.80;;
75716;SDS011;64333;50.138;14.332;2024-02-14T09:57:49;4.47;;;2.80;;
75716;SDS011;64333;50.138;14.332;2024-02-14T10:00:15;5.20;;;3.13;;
75716;SDS011;64333;50.138;14.332;2024-02-14T10:02:41;8.68;;;3.15;;
75716;SDS011;64333;50.138;14.332;2024-02-14T10:05:07;4.40;;;2.67;;
75716;SDS011;64333;50.138;14.332;2024-02-14T10:07:42;7.07;;;2.80;;
75716;SDS011;64333;50.138;14.332;2024-02-14T10:10:08;6.40;;;2.85;;
75716;SDS011;64333;50.138;14.332;2024-02-14T10:12:35;4.68;;;2.72;;
75716;SDS011;64333;50.138;14.332;2024-02-14T10:15:00;5.20;;;3.30;;
75716;SDS011;64333;50.138;14.332;2024-02-14T10:17:26;4.43;;;3.38;;
75716;SDS011;64333;50.138;14.332;2024-02-14T10:19:58;5.03;;;2.85;;
75716;SDS011;64333;50.138;14.332;2024-02-14T10:22:25;5.18;;;2.97;;
75716;SDS011;64333;50.138;14.332;2024-02-14T10:24:57;4.57;;;2.92;;
75716;SDS011;64333;50.138;14.332;2024-02-14T10:27:22;5.75;;;3.20;;
75716;SDS011;64333;50.138;14.332;2024-02-14T10:29:47;5.45;;;2.97;;
75716;SDS011;64333;50.138;14.332;2024-02-14T10:32:16;5.20;;;3.03;;
75716;SDS011;64333;50.138;14.332;2024-02-14T10:34:41;6.88;;;3.53;;
75716;SDS011;64333;50.138;14.332;2024-02-14T10:37:10;6.07;;;3.25;;
75716;SDS011;64333;50.138;14.332;2024-02-14T10:39:38;7.75;;;3.20;;
75716;SDS011;64333;50.138;14.332;2024-02-14T10:42:06;6.45;;;3.10;;
75716;SDS011;64333;50.138;14.332;2024-02-14T10:44:44;4.38;;;2.90;;
75716;SDS011;64333;50.138;14.332;2024-02-14T10:47:14;5.63;;;3.17;;
75716;SDS011;64333;50.138;14.332;2024-02-14T10:49:44;5.30;;;2.85;;
75716;SDS011;64333;50.138;14.332;2024-02-14T10:52:11;4.07;;;2.83;;
75716;SDS011;64333;50.138;14.332;2024-02-14T10:54:40;4.63;;;2.80;;
75716;SDS011;64333;50.138;14.332;2024-02-14T10:57:09;7.40;;;3.75;;
75716;SDS011;64333;50.138;14.332;2024-02-14T10:59:41;5.65;;;3.58;;
75716;SDS011;64333;50.138;14.332;2024-02-14T11:02:09;6.35;;;3.25;;
75716;SDS011;64333;50.138;14.332;2024-02-14T11:04:36;5.57;;;3.85;;
75716;SDS011;64333;50.138;14.332;2024-02-14T11:07:02;9.65;;;3.50;;
75716;SDS011;64333;50.138;14.332;2024-02-14T11:09:32;7.80;;;3.83;;
75716;SDS011;64333;50.138;14.332;2024-02-14T11:12:01;7.38;;;4.03;;
75716;SDS011;64333;50.138;14.332;2024-02-14T11:14:31;4.50;;;2.92;;
75716;SDS011;64333;50.138;14.332;2024-02-14T11:16:58;4.63;;;2.88;;
75716;SDS011;64333;50.138;14.332;2024-02-14T11:19:30;7.28;;;3.00;;
75716;SDS011;64333;50.138;14.332;2024-02-14T11:21:58;5.03;;;2.15;;
75716;SDS011;64333;50.138;14.332;2024-02-14T11:24:26;5.43;;;2.17;;
75716;SDS011;64333;50.138;14.332;2024-02-14T11:26:54;4.68;;;2.20;;
75716;SDS011;64333;50.138;14.332;2024-02-14T11:29:21;2.42;;;1.65;;
75716;SDS011;64333;50.138;14.332;2024-02-14T11:31:57;3.70;;;2.25;;
75716;SDS011;64333;50.138;14.332;2024-02-14T11:34:24;5.57;;;2.10;;
75716;SDS011;64333;50.138;14.332;2024-02-14T11:36:50;3.10;;;1.60;;
75716;SDS011;64333;50.138;14.332;2024-02-14T11:39:16;3.20;;;1.50;;
75716;SDS011;64333;50.138;14.332;2024-02-14T11:41:42;4.43;;;2.17;;
75716;SDS011;64333;50.138;14.332;2024-02-14T11:44:07;2.78;;;1.98;;
75716;SDS011;64333;50.138;14.332;2024-02-14T11:46:33;3.28;;;2.10;;
75716;SDS011;64333;50.138;14.332;2024-02-14T11:49:00;5.07;;;1.92;;
75716;SDS011;64333;50.138;14.332;2024-02-14T11:51:30;5.47;;;1.88;;
75716;SDS011;64333;50.138;14.332;2024-02-14T11:53:57;4.85;;;2.25;;
75716;SDS011;64333;50.138;14.332;2024-02-14T11:56:29;3.63;;;2.13;;
75716;SDS011;64333;50.138;14.332;2024-02-14T11:59:05;4.28;;;2.30;;
75716;SDS011;64333;50.138;14.332;2024-02-14T12:01:36;4.60;;;2.78;;
75716;SDS011;64333;50.138;14.332;2024-02-14T12:04:02;4.30;;;2.90;;
75716;SDS011;64333;50.138;14.332;2024-02-14T12:06:34;4.20;;;2.47;;
75716;SDS011;64333;50.138;14.332;2024-02-14T12:09:03;4.10;;;2.78;;
75716;SDS011;64333;50.138;14.332;2024-02-14T12:11:33;4.55;;;2.83;;
75716;SDS011;64333;50.138;14.332;2024-02-14T12:14:02;6.93;;;2.50;;
75716;SDS011;64333;50.138;14.332;2024-02-14T12:16:28;4.88;;;3.05;;
75716;SDS011;64333;50.138;14.332;2024-02-14T12:21:34;3.42;;;2.08;;
75716;SDS011;64333;50.138;14.332;2024-02-14T12:24:00;4.80;;;2.67;;
75716;SDS011;64333;50.138;14.332;2024-02-14T12:26:31;5.30;;;2.38;;
75716;SDS011;64333;50.138;14.332;2024-02-14T12:28:57;6.63;;;2.72;;
75716;SDS011;64333;50.138;14.332;2024-02-14T12:31:23;6.57;;;2.92;;
75716;SDS011;64333;50.138;14.332;2024-02-14T12:33:49;3.30;;;2.15;;
75716;SDS011;64333;50.138;14.332;2024-02-14T12:36:17;5.13;;;2.90;;
75716;SDS011;64333;50.138;14.332;2024-02-14T12:38:43;4.97;;;2.55;;
75716;SDS011;64333;50.138;14.332;2024-02-14T12:41:09;9.25;;;3.50;;
75716;SDS011;64333;50.138;14.332;2024-02-14T12:43:35;3.88;;;2.55;;
75716;SDS011;64333;50.138;14.332;2024-02-14T12:46:01;6.45;;;2.63;;
75716;SDS011;64333;50.138;14.332;2024-02-14T12:48:29;4.13;;;2.58;;
75716;SDS011;64333;50.138;14.332;2024-02-14T12:50:54;5.35;;;2.72;;
75716;SDS011;64333;50.138;14.332;2024-02-14T12:53:21;2.63;;;1.98;;
75716;SDS011;64333;50.138;14.332;2024-02-14T12:55:46;4.85;;;2.40;;
75716;SDS011;64333;50.138;14.332;2024-02-14T12:58:12;3.35;;;2.25;;
75716;SDS011;64333;50.138;14.332;2024-02-14T13:00:38;3.08;;;2.00;;
75716;SDS011;64333;50.138;14.332;2024-02-14T13:03:03;3.50;;;2.00;;
75716;SDS011;64333;50.138;14.332;2024-02-14T13:05:29;4.05;;;1.60;;
75716;SDS011;64333;50.138;14.332;2024-02-14T13:07:55;4.50;;;2.00;;
75716;SDS011;64333;50.138;14.332;2024-02-14T13:10:20;2.95;;;2.00;;
75716;SDS011;64333;50.138;14.332;2024-02-14T13:12:45;3.55;;;2.25;;
75716;SDS011;64333;50.138;14.332;2024-02-14T13:15:11;3.38;;;2.03;;
75716;SDS011;64333;50.138;14.332;2024-02-14T13:17:36;3.63;;;1.90;;
75716;SDS011;64333;50.138;14.332;2024-02-14T13:20:02;2.55;;;2.00;;
75716;SDS011;64333;50.138;14.332;2024-02-14T13:22:28;3.70;;;1.83;;
75716;SDS011;64333;50.138;14.332;2024-02-14T13:24:53;3.28;;;1.85;;
75716;SDS011;64333;50.138;14.332;2024-02-14T13:27:19;3.97;;;2.58;;
75716;SDS011;64333;50.138;14.332;2024-02-14T13:29:48;3.00;;;1.70;;
75716;SDS011;64333;50.138;14.332;2024-02-14T13:32:14;3.08;;;1.92;;
75716;SDS011;64333;50.138;14.332;2024-02-14T13:34:40;3.80;;;1.75;;
75716;SDS011;64333;50.138;14.332;2024-02-14T13:37:05;3.17;;;1.70;;
75716;SDS011;64333;50.138;14.332;2024-02-14T13:39:31;4.40;;;1.92;;
75716;SDS011;64333;50.138;14.332;2024-02-14T13:41:56;4.10;;;1.95;;
75716;SDS011;64333;50.138;14.332;2024-02-14T13:44:24;4.88;;;2.60;;
75716;SDS011;64333;50.138;14.332;2024-02-14T13:46:50;4.15;;;1.98;;
75716;SDS011;64333;50.138;14.332;2024-02-14T13:49:15;3.20;;;2.28;;
75716;SDS011;64333;50.138;14.332;2024-02-14T13:51:46;3.42;;;2.00;;
75716;SDS011;64333;50.138;14.332;2024-02-14T13:54:12;3.50;;;1.85;;
75716;SDS011;64333;50.138;14.332;2024-02-14T13:56:37;3.70;;;2.22;;
75716;SDS011;64333;50.138;14.332;2024-02-14T13:59:03;3.45;;;2.05;;
75716;SDS011;64333;50.138;14.332;2024-02-14T14:01:28;4.03;;;2.22;;
75716;SDS011;64333;50.138;14.332;2024-02-14T14:03:53;5.43;;;2.60;;
75716;SDS011;64333;50.138;14.332;2024-02-14T14:06:20;4.47;;;2.47;;
75716;SDS011;64333;50.138;14.332;2024-02-14T14:08:49;4.45;;;1.90;;
75716;SDS011;64333;50.138;14.332;2024-02-14T14:11:16;2.47;;;1.85;;
75716;SDS011;64333;50.138;14.332;2024-02-14T14:13:42;3.10;;;1.52;;
75716;SDS011;64333;50.138;14.332;2024-02-14T14:16:07;3.25;;;1.77;;
75716;SDS011;64333;50.138;14.332;2024-02-14T14:18:33;2.13;;;1.50;;
75716;SDS011;64333;50.138;14.332;2024-02-14T14:20:59;1.85;;;1.38;;
75716;SDS011;64333;50.138;14.332;2024-02-14T14:23:25;3.47;;;1.73;;
75716;SDS011;64333;50.138;14.332;2024-02-14T14:25:50;4.10;;;2.53;;
75716;SDS011;64333;50.138;14.332;2024-02-14T14:28:15;3.33;;;2.35;;
75716;SDS011;64333;50.138;14.332;2024-02-14T14:30:42;3.40;;;1.55;;
75716;SDS011;64333;50.138;14.332;2024-02-14T14:33:09;2.47;;;1.73;;